Time;durP1;ratioP1;P1;durP2;ratioP2;P2;SDS_P1;SDS_P2;PMS_P1;PMS_P2;Temp;Humidity;BMP_temperature;BMP_pressure;BME280_temperature;BME280_humidity;BME280_pressure;Samples;Min_cycle;Max_cycle;Signal;HPM_P1;HPM_P2
2022/04/16 00:01:15;;;;;;;0.60;0.40;;;19.70;47.60;;;;;;6175130;28;20457;-68
2022/04/16 00:04:15;;;;;;;0.80;0.60;;;19.70;47.50;;;;;;6173983;28;20043;-69
2022/04/16 00:07:16;;;;;;;0.95;0.60;;;19.70;47.50;;;;;;6173456;28;20070;-68
2022/04/16 00:10:16;;;;;;;0.90;0.52;;;19.70;47.50;;;;;;6174174;28;20041;-68
2022/04/16 00:13:18;;;;;;;0.77;0.50;;;19.70;47.50;;;;;;6174232;28;20034;-68
2022/04/16 00:16:19;;;;;;;0.60;0.52;;;19.70;47.60;;;;;;6173450;28;20513;-69
2022/04/16 00:19:19;;;;;;;0.88;0.50;;;19.70;47.60;;;;;;6174273;28;20035;-68
2022/04/16 00:22:20;;;;;;;1.33;0.45;;;19.70;47.50;;;;;;6173565;28;20093;-69
2022/04/16 00:25:21;;;;;;;0.90;0.50;;;19.70;47.60;;;;;;6173636;28;20421;-67
2022/04/16 00:28:22;;;;;;;1.08;0.43;;;19.70;47.50;;;;;;6174902;28;20045;-68
2022/04/16 00:31:22;;;;;;;1.35;0.55;;;19.70;47.50;;;;;;6154402;28;20027;-67
2022/04/16 00:34:23;;;;;;;0.60;0.40;;;19.70;47.50;;;;;;6149813;29;20556;-69
2022/04/16 00:37:23;;;;;;;0.52;0.40;;;19.70;47.50;;;;;;6149551;29;20035;-67
2022/04/16 00:40:25;;;;;;;0.75;0.47;;;19.70;47.50;;;;;;6149611;29;20051;-67
2022/04/16 00:43:28;;;;;;;0.70;0.50;;;19.70;47.60;;;;;;6144195;29;20768;-68
2022/04/16 00:46:28;;;;;;;0.50;0.40;;;19.70;47.40;;;;;;6125131;29;20066;-68
2022/04/16 00:49:29;;;;;;;0.45;0.38;;;19.70;47.50;;;;;;6125697;29;20042;-68
2022/04/16 00:52:30;;;;;;;0.93;0.60;;;19.70;47.50;;;;;;6124602;29;20114;-68
2022/04/16 00:55:31;;;;;;;0.50;0.40;;;19.70;47.60;;;;;;6171014;28;20034;-69
2022/04/16 00:58:31;;;;;;;0.40;0.40;;;19.60;47.50;;;;;;6173353;28;20031;-68
2022/04/16 01:01:32;;;;;;;0.57;0.40;;;19.70;47.40;;;;;;6172429;28;20445;-67
2022/04/16 01:04:33;;;;;;;0.80;0.68;;;19.70;47.50;;;;;;6173163;28;20039;-68
2022/04/16 01:07:34;;;;;;;0.75;0.52;;;19.70;47.50;;;;;;6172519;28;20505;-67
2022/04/16 01:10:35;;;;;;;1.40;0.50;;;19.70;48.20;;;;;;6172666;28;20027;-67
2022/04/16 01:13:36;;;;;;;0.45;0.45;;;19.60;47.50;;;;;;6172556;28;20026;-69
2022/04/16 01:16:37;;;;;;;0.60;0.30;;;19.60;47.40;;;;;;6172600;28;20031;-68
2022/04/16 01:19:38;;;;;;;0.60;0.50;;;19.70;47.50;;;;;;6172660;28;20034;-70
2022/04/16 01:22:39;;;;;;;1.33;0.43;;;19.60;47.40;;;;;;6161228;28;20035;-68
2022/04/16 01:25:40;;;;;;;0.40;0.40;;;19.60;47.50;;;;;;6148179;29;20055;-67
2022/04/16 01:28:40;;;;;;;0.40;0.40;;;19.60;47.40;;;;;;6148197;29;20106;-67
2022/04/16 01:31:41;;;;;;;0.50;0.30;;;19.60;47.50;;;;;;6148296;28;20062;-69
2022/04/16 01:34:41;;;;;;;1.08;0.63;;;19.60;47.50;;;;;;6148144;29;20102;-68
2022/04/16 01:37:42;;;;;;;1.38;0.50;;;19.60;47.50;;;;;;6148224;29;20111;-68
2022/04/16 01:40:43;;;;;;;0.75;0.40;;;19.60;47.40;;;;;;6148330;29;20118;-67
2022/04/16 01:43:43;;;;;;;1.58;0.52;;;19.60;47.40;;;;;;6140682;29;20475;-68
2022/04/16 01:46:44;;;;;;;0.88;0.55;;;19.70;47.50;;;;;;6124016;29;20035;-69
2022/04/16 01:49:46;;;;;;;0.82;0.50;;;19.60;47.40;;;;;;6123950;29;20131;-67
2022/04/16 01:52:47;;;;;;;0.57;0.40;;;19.60;47.40;;;;;;6127519;28;20066;-67
2022/04/16 01:55:48;;;;;;;0.40;0.40;;;19.60;47.40;;;;;;6171174;28;20031;-69
2022/04/16 01:58:49;;;;;;;0.50;0.40;;;19.60;47.50;;;;;;6171506;28;20082;-67
2022/04/16 02:01:50;;;;;;;1.08;0.32;;;19.60;47.40;;;;;;6171437;28;20046;-67
2022/04/16 02:04:51;;;;;;;0.85;0.50;;;19.60;47.50;;;;;;6171292;28;20041;-68
2022/04/16 02:07:51;;;;;;;0.50;0.40;;;19.60;47.20;;;;;;6171185;28;20133;-67
2022/04/16 02:10:52;;;;;;;0.85;0.50;;;19.60;48.10;;;;;;6171440;28;20067;-67
2022/04/16 02:13:53;;;;;;;0.77;0.45;;;19.60;47.30;;;;;;6170977;28;20027;-68
2022/04/16 02:16:53;;;;;;;0.80;0.50;;;19.60;47.30;;;;;;6171083;28;20057;-68
2022/04/16 02:19:54;;;;;;;0.45;0.40;;;19.60;47.20;;;;;;6170890;28;20452;-68
2022/04/16 02:22:54;;;;;;;1.02;0.40;;;19.60;47.30;;;;;;6170432;28;20049;-67
2022/04/16 02:25:55;;;;;;;1.00;0.57;;;19.60;47.30;;;;;;6170688;28;20027;-67
2022/04/16 02:28:56;;;;;;;0.65;0.45;;;19.70;47.30;;;;;;6171046;28;20031;-68
2022/04/16 02:31:57;;;;;;;1.02;0.43;;;19.60;47.30;;;;;;6146773;28;20037;-68
2022/04/16 02:34:58;;;;;;;0.30;0.30;;;19.60;47.30;;;;;;6146859;29;20028;-67
2022/04/16 02:37:58;;;;;;;0.32;0.30;;;19.60;47.40;;;;;;6146468;29;20493;-69
2022/04/16 02:40:59;;;;;;;0.47;0.40;;;19.60;47.30;;;;;;6146915;29;20042;-67
2022/04/16 02:43:59;;;;;;;0.65;0.43;;;19.60;47.30;;;;;;6137133;29;20091;-67
2022/04/16 02:47:06;;;;;;;0.85;0.40;;;19.60;47.40;;;;;;6122950;29;20023;-68
2022/04/16 02:50:07;;;;;;;0.68;0.32;;;19.60;47.30;;;;;;6123206;29;20042;-68
2022/04/16 02:53:07;;;;;;;0.52;0.47;;;19.60;47.40;;;;;;6131347;28;20026;-68
2022/04/16 02:56:08;;;;;;;0.50;0.35;;;19.60;47.30;;;;;;6170114;28;20031;-68
2022/04/16 02:59:08;;;;;;;0.38;0.35;;;19.60;47.40;;;;;;6170248;28;20066;-68
2022/04/16 03:02:11;;;;;;;0.32;0.32;;;19.60;47.40;;;;;;6170186;28;20029;-68
2022/04/16 03:05:11;;;;;;;0.35;0.30;;;19.60;47.30;;;;;;6169953;28;20058;-68
2022/04/16 03:08:12;;;;;;;0.40;0.30;;;19.60;47.20;;;;;;6170166;28;20080;-68
2022/04/16 03:11:13;;;;;;;0.35;0.35;;;19.60;47.30;;;;;;6170332;28;20026;-67
2022/04/16 03:17:32;;;;;;;0.30;0.30;;;19.60;47.20;;;;;;6169839;28;20113;-67
2022/04/16 03:20:33;;;;;;;0.40;0.30;;;19.60;47.40;;;;;;6169513;28;20033;-67
2022/04/16 03:23:34;;;;;;;1.10;0.30;;;19.60;47.30;;;;;;6169551;28;20034;-67
2022/04/16 03:26:34;;;;;;;0.25;0.25;;;19.60;47.30;;;;;;6169889;28;20332;-68
2022/04/16 03:29:35;;;;;;;0.40;0.30;;;19.60;47.30;;;;;;6164312;28;20029;-69
2022/04/16 03:32:40;;;;;;;1.40;0.50;;;19.60;47.20;;;;;;6145814;28;20363;-68
2022/04/16 03:35:40;;;;;;;0.70;0.45;;;19.60;47.30;;;;;;6149885;28;20544;-68
2022/04/16 03:38:41;;;;;;;0.43;0.32;;;19.60;47.30;;;;;;6169686;28;20042;-68
2022/04/16 03:41:41;;;;;;;1.27;0.55;;;19.60;47.20;;;;;;6169815;28;20512;-68
2022/04/16 03:44:42;;;;;;;1.50;0.50;;;19.60;47.30;;;;;;6154245;28;20046;-68
2022/04/16 03:47:42;;;;;;;0.82;0.40;;;19.60;47.40;;;;;;6145871;28;20102;-68
2022/04/16 03:50:43;;;;;;;0.40;0.30;;;19.60;47.20;;;;;;6145608;28;20029;-68
2022/04/16 03:53:43;;;;;;;0.55;0.40;;;19.60;47.30;;;;;;6154430;28;20033;-68
2022/04/16 04:00:05;;;;;;;0.50;0.30;;;19.60;47.20;;;;;;6169432;28;20047;-69
2022/04/16 04:03:06;;;;;;;0.32;0.32;;;19.60;47.40;;;;;;6169616;28;20031;-67
2022/04/16 04:06:07;;;;;;;0.32;0.22;;;19.60;47.20;;;;;;6169567;28;20121;-68
2022/04/16 04:09:08;;;;;;;0.30;0.30;;;19.60;47.30;;;;;;6169261;28;20327;-68
2022/04/16 04:12:13;;;;;;;0.20;0.20;;;19.60;47.30;;;;;;6169451;28;20027;-68
2022/04/16 04:15:13;;;;;;;;;;;19.60;47.30;;;;;;6169337;28;20026;-67
2022/04/16 04:18:14;;;;;;;0.40;0.30;;;19.60;47.20;;;;;;6169537;28;19906;-67
2022/04/16 04:21:15;;;;;;;0.40;0.30;;;19.60;47.20;;;;;;6167131;28;20046;-69
2022/04/16 04:24:15;;;;;;;0.20;0.20;;;19.60;47.30;;;;;;6145531;29;20433;-68
2022/04/16 04:27:15;;;;;;;0.50;0.30;;;19.60;47.20;;;;;;6145365;28;20038;-67
2022/04/16 04:30:16;;;;;;;0.35;0.30;;;19.60;47.20;;;;;;6149679;28;20027;-68
2022/04/16 04:33:17;;;;;;;0.38;0.38;;;19.60;47.20;;;;;;6144628;28;20028;-69
2022/04/16 04:36:17;;;;;;;0.35;0.30;;;19.60;47.30;;;;;;6144719;28;20042;-68
2022/04/16 04:39:18;;;;;;;0.20;0.20;;;19.60;47.20;;;;;;6145018;28;20106;-68
2022/04/16 04:42:26;;;;;;;0.88;0.25;;;19.60;47.40;;;;;;6145213;28;20027;-67
2022/04/16 04:45:27;;;;;;;0.20;0.20;;;19.60;47.30;;;;;;6126098;28;20046;-69
2022/04/16 04:48:27;;;;;;;1.05;0.50;;;19.60;47.20;;;;;;6125451;29;20039;-68
2022/04/16 04:51:28;;;;;;;0.40;0.20;;;19.60;47.20;;;;;;6125638;29;20035;-68
2022/04/16 04:54:28;;;;;;;0.28;0.20;;;19.60;47.20;;;;;;6140460;29;20081;-68
2022/04/16 04:57:29;;;;;;;0.22;0.20;;;19.60;47.40;;;;;;6149309;28;20035;-68
2022/04/16 05:00:36;;;;;;;0.50;0.30;;;19.60;47.30;;;;;;6148548;29;20453;-67
2022/04/16 05:03:36;;;;;;;0.57;0.30;;;19.60;47.30;;;;;;6147435;28;20054;-68
2022/04/16 05:06:37;;;;;;;2.00;0.30;;;19.60;47.30;;;;;;6148750;28;20023;-69
2022/04/16 05:09:38;;;;;;;0.30;0.30;;;19.60;47.30;;;;;;6148527;28;20035;-68
2022/04/16 05:12:38;;;;;;;0.28;0.28;;;19.60;47.30;;;;;;6148890;28;20023;-67
2022/04/16 05:15:39;;;;;;;0.35;0.30;;;19.60;47.30;;;;;;6148332;28;20548;-69
2022/04/16 05:18:42;;;;;;;0.90;0.30;;;19.60;47.30;;;;;;6148767;28;20640;-68
2022/04/16 05:21:43;;;;;;;0.85;0.32;;;19.60;47.40;;;;;;6148744;28;20072;-69
2022/04/16 05:24:45;;;;;;;0.30;0.20;;;19.60;47.30;;;;;;6148398;29;20382;-68
2022/04/16 05:27:46;;;;;;;0.75;0.45;;;19.60;47.30;;;;;;6149058;28;20035;-67
2022/04/16 05:30:48;;;;;;;0.40;0.30;;;19.60;47.20;;;;;;6147767;28;20038;-67
2022/04/16 05:37:08;;;;;;;0.60;0.40;;;19.60;47.30;;;;;;6148512;29;20027;-69
2022/04/16 05:40:10;;;;;;;0.20;0.20;;;19.60;47.40;;;;;;6148011;29;20038;-68
2022/04/16 05:43:10;;;;;;;0.70;0.35;;;19.60;47.20;;;;;;6144868;29;20122;-67
2022/04/16 05:46:11;;;;;;;0.22;0.20;;;19.60;47.30;;;;;;6123804;29;20498;-69
2022/04/16 05:49:11;;;;;;;0.45;0.30;;;19.60;47.30;;;;;;6124306;29;20028;-67
2022/04/16 05:52:12;;;;;;;0.32;0.30;;;19.60;47.30;;;;;;6122723;29;20031;-67
2022/04/16 05:55:13;;;;;;;0.52;0.30;;;19.60;47.40;;;;;;6165243;28;20110;-67
2022/04/16 05:58:14;;;;;;;0.68;0.50;;;19.60;47.10;;;;;;6171752;28;20466;-69
2022/04/16 06:01:15;;;;;;;0.82;0.35;;;19.60;47.20;;;;;;6171659;28;20066;-67
2022/04/16 06:04:17;;;;;;;0.35;0.30;;;19.60;47.10;;;;;;6171114;28;20501;-67
2022/04/16 06:07:18;;;;;;;0.50;0.40;;;19.60;47.10;;;;;;6171353;28;20054;-68
2022/04/16 06:10:18;;;;;;;0.43;0.40;;;19.60;47.90;;;;;;6171718;28;20089;-69
2022/04/16 06:13:19;;;;;;;0.63;0.43;;;19.60;47.10;;;;;;6171465;28;20101;-68
2022/04/16 06:16:19;;;;;;;0.40;0.40;;;19.60;47.10;;;;;;6170653;28;20028;-69
2022/04/16 06:19:20;;;;;;;0.77;0.40;;;19.60;47.10;;;;;;6171787;28;20039;-68
2022/04/16 06:22:20;;;;;;;0.50;0.47;;;19.60;47.20;;;;;;6170833;28;20050;-67
2022/04/16 06:25:22;;;;;;;0.50;0.40;;;19.60;47.10;;;;;;6171316;28;20031;-68
2022/04/16 06:28:23;;;;;;;0.40;0.40;;;19.60;47.10;;;;;;6169793;28;20440;-67
2022/04/16 06:31:23;;;;;;;0.40;0.32;;;19.60;47.20;;;;;;6151488;28;20086;-67
2022/04/16 06:34:24;;;;;;;0.30;0.30;;;19.60;47.10;;;;;;6146955;29;20023;-67
2022/04/16 06:37:24;;;;;;;0.73;0.52;;;19.60;47.20;;;;;;6146751;29;20102;-68
2022/04/16 06:40:25;;;;;;;0.50;0.30;;;19.60;47.10;;;;;;6147012;29;20020;-68
2022/04/16 06:43:25;;;;;;;0.65;0.40;;;19.60;47.30;;;;;;6142172;29;20035;-68
2022/04/16 06:46:26;;;;;;;1.45;0.50;;;19.60;47.40;;;;;;6133021;28;20054;-67
2022/04/16 06:49:26;;;;;;;2.13;0.40;;;19.60;47.10;;;;;;6146986;28;20027;-67
2022/04/16 06:52:27;;;;;;;0.75;0.28;;;19.60;47.20;;;;;;6146600;28;20514;-68
2022/04/16 06:55:27;;;;;;;0.30;0.30;;;19.60;47.30;;;;;;6168617;28;20035;-68
2022/04/16 06:58:28;;;;;;;0.80;0.40;;;19.60;47.30;;;;;;6168993;28;20031;-69
2022/04/16 07:01:29;;;;;;;0.30;0.30;;;19.60;47.30;;;;;;6170017;28;20054;-68
2022/04/16 07:04:29;;;;;;;0.50;0.40;;;19.60;47.30;;;;;;6170066;28;20067;-68
2022/04/16 07:07:30;;;;;;;0.20;0.20;;;19.60;47.30;;;;;;6169834;28;20039;-68
2022/04/16 07:10:30;;;;;;;0.68;0.47;;;19.60;47.20;;;;;;6170088;28;20150;-67
2022/04/16 07:13:31;;;;;;;0.30;0.30;;;19.60;47.40;;;;;;6170202;28;20068;-69
2022/04/16 07:16:31;;;;;;;0.68;0.50;;;19.60;47.30;;;;;;6169173;28;20039;-69
2022/04/16 07:19:33;;;;;;;0.50;0.30;;;19.60;47.40;;;;;;6170403;28;20031;-69
2022/04/16 07:22:35;;;;;;;0.60;0.40;;;19.60;47.30;;;;;;6170084;28;20098;-67
2022/04/16 07:25:35;;;;;;;0.63;0.50;;;19.60;48.10;;;;;;6170292;28;20062;-69
2022/04/16 07:28:36;;;;;;;0.57;0.30;;;19.60;47.40;;;;;;6170325;28;20433;-69
2022/04/16 07:31:36;;;;;;;4.00;0.50;;;19.60;47.30;;;;;;6148291;28;20031;-67
2022/04/16 07:34:37;;;;;;;0.28;0.28;;;19.60;47.20;;;;;;6146044;29;20090;-68
2022/04/16 07:37:38;;;;;;;0.28;0.20;;;19.60;47.20;;;;;;6145899;29;20058;-67
2022/04/16 07:40:38;;;;;;;0.50;0.40;;;19.60;47.30;;;;;;6145960;29;20061;-68
2022/04/16 07:43:39;;;;;;;1.02;0.30;;;19.60;47.30;;;;;;6138694;29;20040;-68
2022/04/16 07:46:39;;;;;;;0.63;0.40;;;19.60;47.30;;;;;;6121625;29;20114;-68
2022/04/16 07:49:40;;;;;;;0.55;0.38;;;19.60;47.20;;;;;;6121832;29;20032;-68
2022/04/16 07:52:40;;;;;;;0.50;0.40;;;19.60;47.30;;;;;;6123016;28;20427;-67
2022/04/16 07:55:41;;;;;;;0.68;0.30;;;19.60;47.20;;;;;;6169437;28;20029;-69
2022/04/16 07:58:41;;;;;;;0.57;0.30;;;19.60;47.20;;;;;;6169784;28;20046;-68
2022/04/16 08:01:42;;;;;;;0.63;0.43;;;19.60;47.30;;;;;;6169813;28;20031;-68
2022/04/16 08:04:42;;;;;;;0.45;0.45;;;19.60;47.30;;;;;;6169269;28;20085;-68
2022/04/16 08:07:44;;;;;;;0.63;0.40;;;19.60;47.30;;;;;;6168789;28;20504;-66
2022/04/16 08:10:46;;;;;;;0.40;0.30;;;19.60;47.30;;;;;;6169624;28;20177;-68
2022/04/16 08:13:46;;;;;;;0.47;0.30;;;19.60;47.30;;;;;;6169195;28;20389;-69
2022/04/16 08:16:47;;;;;;;0.47;0.20;;;19.60;47.20;;;;;;6167638;28;20058;-68
2022/04/16 08:19:47;;;;;;;0.55;0.30;;;19.60;47.20;;;;;;6172478;28;20105;-68
2022/04/16 08:22:48;;;;;;;0.40;0.30;;;19.60;47.10;;;;;;6174131;28;20039;-69
2022/04/16 08:25:48;;;;;;;0.40;0.30;;;19.60;47.20;;;;;;6173694;28;20440;-68
2022/04/16 08:28:49;;;;;;;0.50;0.40;;;19.60;47.10;;;;;;6174123;28;20445;-67
2022/04/16 08:31:50;;;;;;;0.50;0.30;;;19.60;47.90;;;;;;6151232;28;20128;-68
2022/04/16 08:34:50;;;;;;;0.75;0.40;;;19.60;47.10;;;;;;6150195;29;20462;-67
2022/04/16 08:37:51;;;;;;;0.30;0.30;;;19.60;47.00;;;;;;6149028;29;20028;-66
2022/04/16 08:40:53;;;;;;;0.68;0.43;;;19.60;47.00;;;;;;6149801;29;20023;-68
2022/04/16 08:43:56;;;;;;;0.30;0.30;;;19.70;47.00;;;;;;6140668;29;20047;-68
2022/04/16 08:46:58;;;;;;;0.40;0.30;;;19.60;47.90;;;;;;6125676;29;20086;-69
2022/04/16 08:49:59;;;;;;;0.80;0.30;;;19.60;47.10;;;;;;6125778;29;20030;-67
2022/04/16 08:53:00;;;;;;;0.65;0.35;;;19.60;47.10;;;;;;6132147;28;20315;-68
2022/04/16 08:56:01;;;;;;;2.20;0.40;;;19.60;47.00;;;;;;6172696;28;20444;-68
2022/04/16 08:59:01;;;;;;;0.55;0.28;;;19.60;47.00;;;;;;6173074;28;20564;-68
2022/04/16 09:02:02;;;;;;;0.40;0.32;;;19.60;47.20;;;;;;6173048;28;20375;-69
2022/04/16 09:05:06;;;;;;;1.27;0.40;;;19.60;47.00;;;;;;6173345;28;20047;-69
2022/04/16 09:08:07;;;;;;;1.10;0.40;;;19.60;47.20;;;;;;6172640;28;20054;-67
2022/04/16 09:11:11;;;;;;;0.55;0.30;;;19.60;47.10;;;;;;6172908;28;20477;-69
2022/04/16 09:14:11;;;;;;;0.30;0.30;;;19.60;47.20;;;;;;6172974;28;20040;-67
2022/04/16 09:17:16;;;;;;;0.32;0.30;;;19.60;47.30;;;;;;6172002;28;20114;-67
2022/04/16 09:20:17;;;;;;;0.57;0.32;;;19.60;47.20;;;;;;6173049;28;20027;-68
2022/04/16 09:23:22;;;;;;;0.70;0.40;;;19.70;47.30;;;;;;6172823;28;20501;-68
2022/04/16 09:26:35;;;;;;;0.20;0.20;;;19.60;47.30;;;;;;6172222;28;20030;-69
2022/04/16 09:29:36;;;;;;;0.47;0.38;;;19.70;47.30;;;;;;6166853;28;20118;-67
2022/04/16 09:32:44;;;;;;;1.30;0.55;;;19.60;47.30;;;;;;6148098;29;20016;-67
2022/04/16 09:35:46;;;;;;;0.38;0.30;;;19.70;47.30;;;;;;6148352;29;20055;-67
2022/04/16 09:38:48;;;;;;;0.57;0.30;;;19.60;47.30;;;;;;6148145;29;20560;-68
2022/04/16 09:41:53;;;;;;;0.20;0.20;;;19.70;47.30;;;;;;6148207;29;20031;-69
2022/04/16 09:44:53;;;;;;;0.20;0.20;;;19.70;47.30;;;;;;6131624;29;20106;-68
2022/04/16 09:47:54;;;;;;;0.25;0.25;;;19.70;47.40;;;;;;6124655;29;20028;-67
2022/04/16 09:50:56;;;;;;;0.90;0.50;;;19.70;47.30;;;;;;6124157;29;20418;-67
2022/04/16 09:53:58;;;;;;;2.85;0.30;;;19.70;47.30;;;;;;6145371;28;20080;-67
2022/04/16 09:57:01;;;;;;;0.30;0.30;;;19.70;47.30;;;;;;6171611;28;20030;-67
2022/04/16 10:00:03;;;;;;;0.57;0.30;;;19.60;47.30;;;;;;6171797;28;20413;-68
2022/04/16 10:03:06;;;;;;;0.50;0.32;;;19.70;47.40;;;;;;6171545;28;20122;-68
2022/04/16 10:06:08;;;;;;;0.40;0.30;;;19.70;47.40;;;;;;6171469;28;20515;-68
2022/04/16 10:09:17;;;;;;;0.30;0.30;;;19.70;47.40;;;;;;6171522;28;20482;-68
2022/04/16 10:15:22;;;;;;;0.32;0.28;;;19.70;47.30;;;;;;6171180;28;20019;-67
2022/04/16 10:18:22;;;;;;;0.20;0.20;;;19.70;47.40;;;;;;6171570;28;20035;-67
2022/04/16 10:21:23;;;;;;;0.50;0.20;;;19.70;47.40;;;;;;6171624;28;20046;-67
2022/04/16 10:24:25;;;;;;;0.68;0.30;;;19.70;47.40;;;;;;6170999;28;20034;-68
2022/04/16 10:27:30;;;;;;;0.30;0.30;;;19.70;47.40;;;;;;6171045;28;20034;-69
2022/04/16 10:30:40;;;;;;;0.57;0.40;;;19.70;47.40;;;;;;6158458;28;20074;-69
2022/04/16 10:33:40;;;;;;;0.30;0.30;;;19.70;47.40;;;;;;6147052;29;20043;-68
2022/04/16 10:36:49;;;;;;;0.45;0.20;;;19.70;47.40;;;;;;6146720;29;20038;-67
2022/04/16 10:39:53;;;;;;;0.30;0.30;;;19.70;47.40;;;;;;6146880;29;20034;-68
2022/04/16 10:43:01;;;;;;;0.17;0.17;;;19.70;48.10;;;;;;6145022;28;20517;-69
2022/04/16 10:46:04;;;;;;;0.20;0.20;;;19.70;47.30;;;;;;6123194;29;20027;-69
2022/04/16 10:49:08;;;;;;;0.60;0.30;;;19.70;48.10;;;;;;6122870;29;20020;-67
2022/04/16 10:52:23;;;;;;;0.20;0.20;;;19.70;47.40;;;;;;6123046;29;20485;-68
2022/04/16 10:55:32;;;;;;;0.25;0.25;;;19.70;47.30;;;;;;6166625;28;20031;-68
2022/04/16 10:58:33;;;;;;;0.43;0.32;;;19.70;47.40;;;;;;6170775;28;20030;-69
2022/04/16 11:01:34;;;;;;;0.30;0.20;;;19.70;47.40;;;;;;6170456;28;20053;-70
2022/04/16 11:04:35;;;;;;;0.30;0.30;;;19.70;47.30;;;;;;6170355;28;20468;-67
2022/04/16 11:07:38;;;;;;;0.25;0.20;;;19.70;47.40;;;;;;6170141;28;20023;-68
2022/04/16 11:10:40;;;;;;;0.20;0.20;;;19.70;47.30;;;;;;6170115;28;20082;-67
2022/04/16 11:13:42;;;;;;;0.38;0.25;;;19.70;47.30;;;;;;6170032;28;20041;-67
2022/04/16 11:16:44;;;;;;;0.35;0.30;;;19.70;47.40;;;;;;6169903;28;20536;-69
2022/04/16 11:20:01;;;;;;;0.20;0.20;;;19.70;47.30;;;;;;6169918;28;20500;-67
2022/04/16 11:23:10;;;;;;;0.35;0.30;;;19.70;47.30;;;;;;6170432;28;20061;-69
2022/04/16 11:36:25;;;;;;;0.40;0.30;;;19.70;47.30;;;;;;6146501;29;20039;-68
2022/04/16 11:39:30;;;;;;;0.90;0.30;;;19.70;47.30;;;;;;6145737;29;20089;-69
2022/04/16 11:42:32;;;;;;;0.20;0.20;;;19.70;47.30;;;;;;6145685;29;20043;-69
2022/04/16 11:45:33;;;;;;;0.30;0.25;;;19.70;47.30;;;;;;6123561;29;20114;-68
2022/04/16 11:48:34;;;;;;;0.20;0.20;;;19.70;47.30;;;;;;6122136;29;20024;-68
2022/04/16 11:51:37;;;;;;;0.60;0.40;;;19.70;47.30;;;;;;6122151;29;20581;-69
2022/04/16 11:54:38;;;;;;;0.47;0.30;;;19.70;47.30;;;;;;6156600;28;20246;-68
2022/04/16 11:57:45;;;;;;;0.28;0.28;;;19.70;47.30;;;;;;6175095;28;20485;-66
2022/04/16 12:00:55;;;;;;;0.35;0.20;;;19.70;47.30;;;;;;6174552;28;20061;-67
2022/04/16 12:04:06;;;;;;;0.43;0.30;;;19.70;47.30;;;;;;6174635;28;20031;-69
2022/04/16 12:07:17;;;;;;;0.38;0.30;;;19.70;47.30;;;;;;6174374;28;20540;-67
2022/04/16 12:10:17;;;;;;;0.20;0.20;;;19.70;47.30;;;;;;6174130;28;20486;-66
2022/04/16 12:13:18;;;;;;;0.38;0.30;;;19.70;47.30;;;;;;6174419;28;20045;-68
2022/04/16 12:16:18;;;;;;;0.30;0.22;;;19.70;47.30;;;;;;6173666;28;20041;-67
2022/04/16 12:19:20;;;;;;;0.30;0.30;;;19.70;47.30;;;;;;6174453;28;20018;-68
2022/04/16 12:22:21;;;;;;;0.13;0.13;;;19.70;47.30;;;;;;6174413;28;20409;-68
2022/04/16 12:25:23;;;;;;;0.32;0.25;;;19.70;47.30;;;;;;6173427;28;20030;-69
2022/04/16 12:28:25;;;;;;;0.40;0.40;;;19.70;47.30;;;;;;6174114;28;20019;-68
2022/04/16 12:31:29;;;;;;;0.52;0.30;;;19.70;47.30;;;;;;6154175;28;20642;-68
2022/04/16 12:34:30;;;;;;;0.20;0.20;;;19.70;47.30;;;;;;6149935;29;20107;-67
2022/04/16 12:37:30;;;;;;;0.25;0.25;;;19.70;47.30;;;;;;6149455;29;20038;-69
2022/04/16 12:40:33;;;;;;;0.77;0.30;;;19.70;47.20;;;;;;6149738;29;20035;-67
2022/04/16 12:43:34;;;;;;;0.47;0.32;;;19.70;47.20;;;;;;6143482;29;20067;-70
2022/04/16 12:46:34;;;;;;;0.40;0.22;;;19.70;47.20;;;;;;6125135;29;20107;-68
2022/04/16 12:49:35;;;;;;;0.30;0.25;;;19.70;47.20;;;;;;6125879;29;20032;-67
2022/04/16 12:52:36;;;;;;;0.30;0.25;;;19.70;47.20;;;;;;6125829;29;20580;-68
2022/04/16 12:55:36;;;;;;;0.20;0.20;;;19.70;47.20;;;;;;6172785;28;20045;-68
2022/04/16 12:58:37;;;;;;;0.20;0.20;;;19.70;47.20;;;;;;6173250;28;20054;-69
2022/04/16 13:01:37;;;;;;;0.30;0.20;;;19.70;47.20;;;;;;6173646;28;20477;-69
2022/04/16 13:04:38;;;;;;;0.28;0.20;;;19.70;47.20;;;;;;6172159;28;20540;-69
2022/04/16 13:07:42;;;;;;;0.20;0.20;;;19.70;47.20;;;;;;6172782;28;20038;-67
2022/04/16 13:10:43;;;;;;;0.55;0.30;;;19.70;47.20;;;;;;6172670;28;20114;-68
2022/04/16 13:13:43;;;;;;;0.30;0.30;;;19.70;47.20;;;;;;6172889;28;20030;-68
2022/04/16 13:16:45;;;;;;;0.30;0.30;;;19.70;47.20;;;;;;6172524;28;20520;-69
2022/04/16 13:19:46;;;;;;;0.55;0.20;;;19.70;47.10;;;;;;6171547;28;20096;-69
2022/04/16 13:22:46;;;;;;;0.45;0.30;;;19.70;47.10;;;;;;6158593;28;20020;-67
2022/04/16 13:25:47;;;;;;;0.30;0.20;;;19.70;47.10;;;;;;6148340;29;20023;-68
2022/04/16 13:28:48;;;;;;;0.25;0.20;;;19.70;47.20;;;;;;6148857;29;20027;-67
2022/04/16 13:31:48;;;;;;;0.52;0.30;;;19.70;47.10;;;;;;6148516;28;20085;-67
2022/04/16 13:34:49;;;;;;;0.25;0.20;;;19.70;47.10;;;;;;6148204;29;20050;-69
2022/04/16 13:37:49;;;;;;;0.30;0.30;;;19.70;47.10;;;;;;6148410;29;20482;-69
2022/04/16 13:44:29;;;;;;;0.25;0.25;;;19.70;47.10;;;;;;6073997;29;20123;-68
2022/04/16 13:47:29;;;;;;;0.22;0.20;;;19.70;47.10;;;;;;6073876;29;20043;-68
2022/04/16 13:50:32;;;;;;;0.40;0.30;;;19.70;47.10;;;;;;6144734;28;20509;-67
2022/04/16 13:53:32;;;;;;;0.30;0.20;;;19.70;47.10;;;;;;6155429;28;20030;-68
2022/04/16 13:56:33;;;;;;;0.75;0.25;;;19.70;47.10;;;;;;6172091;28;20030;-67
2022/04/16 13:59:33;;;;;;;0.43;0.25;;;19.70;47.10;;;;;;6171876;28;20062;-69
2022/04/16 14:02:34;;;;;;;0.20;0.20;;;19.70;47.10;;;;;;6171771;28;20066;-67
2022/04/16 14:05:44;;;;;;;0.10;0.10;;;19.70;47.00;;;;;;6171405;28;20057;-67
2022/04/16 14:08:45;;;;;;;0.50;0.20;;;19.70;47.00;;;;;;6172019;28;20014;-68
2022/04/16 14:11:46;;;;;;;0.30;0.30;;;19.70;47.00;;;;;;6170280;28;20030;-68
2022/04/16 14:14:47;;;;;;;0.30;0.30;;;19.70;47.10;;;;;;6171480;28;20069;-69
2022/04/16 14:17:50;;;;;;;0.32;0.25;;;19.70;47.00;;;;;;6170996;28;20019;-69
2022/04/16 14:20:51;;;;;;;0.20;0.20;;;19.70;47.00;;;;;;6171860;28;20504;-68
2022/04/16 14:23:52;;;;;;;0.40;0.20;;;19.70;47.10;;;;;;6170757;28;20073;-67
2022/04/16 14:26:53;;;;;;;0.35;0.30;;;19.70;47.10;;;;;;6170876;28;20066;-67
2022/04/16 14:29:54;;;;;;;0.38;0.20;;;19.70;47.00;;;;;;6163461;28;20132;-68
2022/04/16 14:32:55;;;;;;;0.28;0.20;;;19.70;47.10;;;;;;6147509;29;20024;-68
2022/04/16 14:35:55;;;;;;;0.30;0.28;;;19.70;47.00;;;;;;6146847;29;20611;-67
2022/04/16 14:38:56;;;;;;;0.43;0.20;;;19.70;47.10;;;;;;6147206;29;20031;-68
2022/04/16 14:41:57;;;;;;;0.22;0.20;;;19.70;47.10;;;;;;6147121;29;20398;-69
2022/04/16 14:44:58;;;;;;;0.20;0.20;;;19.70;47.10;;;;;;6129740;29;20117;-69
2022/04/16 14:48:00;;;;;;;0.20;0.20;;;19.70;47.10;;;;;;6122705;29;20038;-68
2022/04/16 14:51:02;;;;;;;0.25;0.25;;;19.70;47.10;;;;;;6123359;29;20023;-68
2022/04/16 14:54:03;;;;;;;0.38;0.30;;;19.70;47.00;;;;;;6145545;28;20031;-67
2022/04/16 14:57:04;;;;;;;0.30;0.28;;;19.70;47.00;;;;;;6170482;28;20421;-68
2022/04/16 15:00:05;;;;;;;0.45;0.30;;;19.70;47.10;;;;;;6170778;28;20051;-68
2022/04/16 15:03:05;;;;;;;0.60;0.22;;;19.70;47.00;;;;;;6170709;28;20041;-69
2022/04/16 15:06:06;;;;;;;0.30;0.30;;;19.70;47.10;;;;;;6170348;28;20019;-69
2022/04/16 15:09:06;;;;;;;0.38;0.30;;;19.70;47.10;;;;;;6170154;28;20111;-67
2022/04/16 15:12:07;;;;;;;0.43;0.25;;;19.70;47.10;;;;;;6170843;28;20027;-68
2022/04/16 15:15:08;;;;;;;0.10;0.10;;;19.70;47.10;;;;;;6170732;28;20477;-69
2022/04/16 15:18:09;;;;;;;0.20;0.20;;;19.70;47.10;;;;;;6170356;28;20133;-69
2022/04/16 15:21:09;;;;;;;0.60;0.30;;;19.70;47.10;;;;;;6170124;28;20382;-68
2022/04/16 15:24:10;;;;;;;0.20;0.20;;;19.70;47.20;;;;;;6170099;28;20030;-68
2022/04/16 15:27:11;;;;;;;0.22;0.20;;;19.70;47.10;;;;;;6169491;28;20026;-69
2022/04/16 15:30:11;;;;;;;0.30;0.30;;;19.70;47.10;;;;;;6166759;28;20428;-68
2022/04/16 15:33:12;;;;;;;0.22;0.22;;;19.70;47.10;;;;;;6170178;28;20034;-69
2022/04/16 15:36:12;;;;;;;0.52;0.40;;;19.70;47.10;;;;;;6170362;28;20035;-68
2022/04/16 15:39:13;;;;;;;0.40;0.20;;;19.70;47.10;;;;;;6170130;28;20433;-68
2022/04/16 15:42:13;;;;;;;0.30;0.30;;;19.70;47.10;;;;;;6169928;28;20041;-68
2022/04/16 15:45:14;;;;;;;0.65;0.40;;;19.70;47.10;;;;;;6131253;28;20357;-68
2022/04/16 15:48:16;;;;;;;0.30;0.30;;;19.70;47.20;;;;;;6122665;29;20035;-69
2022/04/16 15:51:16;;;;;;;0.20;0.20;;;19.70;47.20;;;;;;6122118;29;20035;-69
2022/04/16 15:54:17;;;;;;;0.20;0.17;;;19.70;47.20;;;;;;6148719;28;20042;-68
2022/04/16 15:57:17;;;;;;;0.20;0.20;;;19.70;47.20;;;;;;6169586;28;20092;-69
2022/04/16 16:00:18;;;;;;;0.20;0.20;;;19.70;47.20;;;;;;6168168;28;20054;-67
2022/04/16 16:03:18;;;;;;;0.50;0.30;;;19.70;47.20;;;;;;6169608;28;20396;-69
2022/04/16 16:06:19;;;;;;;0.43;0.28;;;19.70;47.20;;;;;;6169432;28;20481;-69
2022/04/16 16:09:19;;;;;;;0.25;0.20;;;19.70;47.20;;;;;;6169264;28;20617;-68
2022/04/16 16:12:23;;;;;;;0.20;0.20;;;19.70;47.20;;;;;;6169603;28;20023;-69